sensor_id;sensor_type;location;lat;lon;timestamp;temperature;humidity
4324;DHT22;2175;51.018;6.994;2023-08-06T00:01:54;15.90;99.90
4324;DHT22;2175;51.018;6.994;2023-08-06T00:04:20;15.90;99.90
4324;DHT22;2175;51.018;6.994;2023-08-06T00:06:46;15.90;99.90
4324;DHT22;2175;51.018;6.994;2023-08-06T00:09:11;15.90;99.90
4324;DHT22;2175;51.018;6.994;2023-08-06T00:11:37;15.80;99.90
4324;DHT22;2175;51.018;6.994;2023-08-06T00:14:02;15.80;99.90
4324;DHT22;2175;51.018;6.994;2023-08-06T00:16:28;15.80;99.90
4324;DHT22;2175;51.018;6.994;2023-08-06T00:18:53;15.80;99.90
4324;DHT22;2175;51.018;6.994;2023-08-06T00:21:19;15.80;99.90
4324;DHT22;2175;51.018;6.994;2023-08-06T00:23:44;15.70;99.90
4324;DHT22;2175;51.018;6.994;2023-08-06T00:26:10;15.60;99.90
4324;DHT22;2175;51.018;6.994;2023-08-06T00:28:35;15.60;99.90
4324;DHT22;2175;51.018;6.994;2023-08-06T00:31:01;15.60;99.90
4324;DHT22;2175;51.018;6.994;2023-08-06T00:33:26;15.60;99.90
4324;DHT22;2175;51.018;6.994;2023-08-06T00:35:52;15.50;99.90
4324;DHT22;2175;51.018;6.994;2023-08-06T00:38:17;15.40;99.90
4324;DHT22;2175;51.018;6.994;2023-08-06T00:40:43;15.40;99.90
4324;DHT22;2175;51.018;6.994;2023-08-06T00:43:09;15.30;99.90
4324;DHT22;2175;51.018;6.994;2023-08-06T00:45:36;15.30;99.90
4324;DHT22;2175;51.018;6.994;2023-08-06T00:48:04;15.30;99.90
4324;DHT22;2175;51.018;6.994;2023-08-06T00:50:30;15.30;99.90
4324;DHT22;2175;51.018;6.994;2023-08-06T00:52:56;15.30;99.90
4324;DHT22;2175;51.018;6.994;2023-08-06T00:55:22;15.30;99.90
4324;DHT22;2175;51.018;6.994;2023-08-06T00:57:47;15.40;99.90
4324;DHT22;2175;51.018;6.994;2023-08-06T01:00:13;15.40;99.90
4324;DHT22;2175;51.018;6.994;2023-08-06T01:02:39;15.30;99.90
4324;DHT22;2175;51.018;6.994;2023-08-06T01:05:04;15.30;99.90
4324;DHT22;2175;51.018;6.994;2023-08-06T01:10:27;15.30;99.90
4324;DHT22;2175;51.018;6.994;2023-08-06T01:15:49;15.30;99.90
4324;DHT22;2175;51.018;6.994;2023-08-06T01:18:15;15.30;99.90
4324;DHT22;2175;51.018;6.994;2023-08-06T01:20:41;15.30;99.90
4324;DHT22;2175;51.018;6.994;2023-08-06T01:23:07;15.40;99.90
4324;DHT22;2175;51.018;6.994;2023-08-06T01:25:43;15.40;99.90
4324;DHT22;2175;51.018;6.994;2023-08-06T01:28:22;15.40;99.90
4324;DHT22;2175;51.018;6.994;2023-08-06T01:30:49;15.40;99.90
4324;DHT22;2175;51.018;6.994;2023-08-06T01:33:19;15.40;99.90
4324;DHT22;2175;51.018;6.994;2023-08-06T01:35:48;15.40;99.90
4324;DHT22;2175;51.018;6.994;2023-08-06T01:38:15;15.40;99.90
4324;DHT22;2175;51.018;6.994;2023-08-06T01:40:40;15.40;99.90
4324;DHT22;2175;51.018;6.994;2023-08-06T01:43:06;15.40;99.90
4324;DHT22;2175;51.018;6.994;2023-08-06T01:45:32;15.40;99.90
4324;DHT22;2175;51.018;6.994;2023-08-06T01:47:57;15.40;99.90
4324;DHT22;2175;51.018;6.994;2023-08-06T01:50:23;15.30;99.90
4324;DHT22;2175;51.018;6.994;2023-08-06T01:52:48;15.30;99.90
4324;DHT22;2175;51.018;6.994;2023-08-06T01:55:14;15.30;99.90
4324;DHT22;2175;51.018;6.994;2023-08-06T01:57:39;15.30;99.90
4324;DHT22;2175;51.018;6.994;2023-08-06T02:00:06;15.30;99.90
4324;DHT22;2175;51.018;6.994;2023-08-06T02:02:31;15.20;99.90
4324;DHT22;2175;51.018;6.994;2023-08-06T02:04:59;15.10;99.90
4324;DHT22;2175;51.018;6.994;2023-08-06T02:07:24;15.10;99.90
4324;DHT22;2175;51.018;6.994;2023-08-06T02:09:50;15.00;99.90
4324;DHT22;2175;51.018;6.994;2023-08-06T02:12:15;15.00;99.90
4324;DHT22;2175;51.018;6.994;2023-08-06T02:14:41;15.00;99.90
4324;DHT22;2175;51.018;6.994;2023-08-06T02:17:06;15.00;99.90
4324;DHT22;2175;51.018;6.994;2023-08-06T02:19:32;15.00;99.90
4324;DHT22;2175;51.018;6.994;2023-08-06T02:21:57;15.00;99.90
4324;DHT22;2175;51.018;6.994;2023-08-06T02:24:23;15.00;99.90
4324;DHT22;2175;51.018;6.994;2023-08-06T02:26:49;15.00;99.90
4324;DHT22;2175;51.018;6.994;2023-08-06T02:29:17;15.00;99.90
4324;DHT22;2175;51.018;6.994;2023-08-06T02:31:42;15.10;99.90
4324;DHT22;2175;51.018;6.994;2023-08-06T02:34:08;15.10;99.90
4324;DHT22;2175;51.018;6.994;2023-08-06T02:36:33;15.20;99.90
4324;DHT22;2175;51.018;6.994;2023-08-06T02:38:59;15.20;99.90
4324;DHT22;2175;51.018;6.994;2023-08-06T02:41:24;15.20;99.90
4324;DHT22;2175;51.018;6.994;2023-08-06T02:43:50;15.30;99.90
4324;DHT22;2175;51.018;6.994;2023-08-06T02:46:15;15.30;99.90
4324;DHT22;2175;51.018;6.994;2023-08-06T02:48:41;15.30;99.90
4324;DHT22;2175;51.018;6.994;2023-08-06T02:51:07;15.30;99.90
4324;DHT22;2175;51.018;6.994;2023-08-06T02:53:32;15.30;99.90
4324;DHT22;2175;51.018;6.994;2023-08-06T02:55:58;15.40;99.90
4324;DHT22;2175;51.018;6.994;2023-08-06T02:58:24;15.40;99.90
4324;DHT22;2175;51.018;6.994;2023-08-06T03:01:06;15.40;99.90
4324;DHT22;2175;51.018;6.994;2023-08-06T03:03:33;15.40;99.90
4324;DHT22;2175;51.018;6.994;2023-08-06T03:05:59;15.50;99.90
4324;DHT22;2175;51.018;6.994;2023-08-06T03:08:24;15.50;99.90
4324;DHT22;2175;51.018;6.994;2023-08-06T03:10:51;15.50;99.90
4324;DHT22;2175;51.018;6.994;2023-08-06T03:13:18;15.50;99.90
4324;DHT22;2175;51.018;6.994;2023-08-06T03:15:53;15.50;99.90
4324;DHT22;2175;51.018;6.994;2023-08-06T03:18:19;15.40;99.90
4324;DHT22;2175;51.018;6.994;2023-08-06T03:20:45;15.50;99.90
4324;DHT22;2175;51.018;6.994;2023-08-06T03:23:11;15.40;99.90
4324;DHT22;2175;51.018;6.994;2023-08-06T03:25:36;15.40;99.90
4324;DHT22;2175;51.018;6.994;2023-08-06T03:28:02;15.40;99.90
4324;DHT22;2175;51.018;6.994;2023-08-06T03:30:28;15.40;99.90
4324;DHT22;2175;51.018;6.994;2023-08-06T03:32:53;15.40;99.90
4324;DHT22;2175;51.018;6.994;2023-08-06T03:35:19;15.50;99.90
4324;DHT22;2175;51.018;6.994;2023-08-06T03:37:44;15.50;99.90
4324;DHT22;2175;51.018;6.994;2023-08-06T03:40:10;15.60;99.90
4324;DHT22;2175;51.018;6.994;2023-08-06T03:42:36;15.60;99.90
4324;DHT22;2175;51.018;6.994;2023-08-06T03:45:01;15.50;99.90
4324;DHT22;2175;51.018;6.994;2023-08-06T03:47:27;15.50;99.90
4324;DHT22;2175;51.018;6.994;2023-08-06T03:49:52;15.60;99.90
4324;DHT22;2175;51.018;6.994;2023-08-06T03:52:18;15.50;99.90
4324;DHT22;2175;51.018;6.994;2023-08-06T03:54:43;15.50;99.90
4324;DHT22;2175;51.018;6.994;2023-08-06T03:57:09;15.40;99.90
4324;DHT22;2175;51.018;6.994;2023-08-06T03:59:35;15.50;99.90
4324;DHT22;2175;51.018;6.994;2023-08-06T04:02:01;15.60;99.90
4324;DHT22;2175;51.018;6.994;2023-08-06T04:04:27;15.50;99.90
4324;DHT22;2175;51.018;6.994;2023-08-06T04:06:53;15.40;99.90
4324;DHT22;2175;51.018;6.994;2023-08-06T04:09:18;15.40;99.90
4324;DHT22;2175;51.018;6.994;2023-08-06T04:11:44;15.50;99.90
4324;DHT22;2175;51.018;6.994;2023-08-06T04:14:10;15.50;99.90
4324;DHT22;2175;51.018;6.994;2023-08-06T04:16:35;15.50;99.90
4324;DHT22;2175;51.018;6.994;2023-08-06T04:19:01;15.40;99.90
4324;DHT22;2175;51.018;6.994;2023-08-06T04:21:27;15.40;99.90
4324;DHT22;2175;51.018;6.994;2023-08-06T04:23:52;15.40;99.90
4324;DHT22;2175;51.018;6.994;2023-08-06T04:26:18;15.30;99.90
4324;DHT22;2175;51.018;6.994;2023-08-06T04:28:43;15.40;99.90
4324;DHT22;2175;51.018;6.994;2023-08-06T04:31:09;15.40;99.90
4324;DHT22;2175;51.018;6.994;2023-08-06T04:33:35;15.50;99.90
4324;DHT22;2175;51.018;6.994;2023-08-06T04:36:00;15.60;99.90
4324;DHT22;2175;51.018;6.994;2023-08-06T04:38:26;15.40;99.90
4324;DHT22;2175;51.018;6.994;2023-08-06T04:40:52;15.50;99.90
4324;DHT22;2175;51.018;6.994;2023-08-06T04:43:18;15.40;99.90
4324;DHT22;2175;51.018;6.994;2023-08-06T04:45:48;15.50;99.90
4324;DHT22;2175;51.018;6.994;2023-08-06T04:48:14;15.50;99.90
4324;DHT22;2175;51.018;6.994;2023-08-06T04:50:48;15.50;99.90
4324;DHT22;2175;51.018;6.994;2023-08-06T04:53:14;15.50;99.90
4324;DHT22;2175;51.018;6.994;2023-08-06T04:55:40;15.50;99.90
4324;DHT22;2175;51.018;6.994;2023-08-06T04:58:06;15.50;99.90
4324;DHT22;2175;51.018;6.994;2023-08-06T05:00:32;15.50;99.90
4324;DHT22;2175;51.018;6.994;2023-08-06T05:02:59;15.50;99.90
4324;DHT22;2175;51.018;6.994;2023-08-06T05:05:26;15.40;99.90
4324;DHT22;2175;51.018;6.994;2023-08-06T05:07:53;15.40;99.90
4324;DHT22;2175;51.018;6.994;2023-08-06T05:10:19;15.40;99.90
4324;DHT22;2175;51.018;6.994;2023-08-06T05:12:45;15.40;99.90
4324;DHT22;2175;51.018;6.994;2023-08-06T05:15:11;15.30;99.90
4324;DHT22;2175;51.018;6.994;2023-08-06T05:17:36;15.40;99.90
4324;DHT22;2175;51.018;6.994;2023-08-06T05:20:02;15.50;99.90
4324;DHT22;2175;51.018;6.994;2023-08-06T05:22:28;15.50;99.90
4324;DHT22;2175;51.018;6.994;2023-08-06T05:24:53;15.50;99.90
4324;DHT22;2175;51.018;6.994;2023-08-06T05:27:19;15.50;99.90
4324;DHT22;2175;51.018;6.994;2023-08-06T05:29:45;15.60;99.90
4324;DHT22;2175;51.018;6.994;2023-08-06T05:32:10;15.60;99.90
4324;DHT22;2175;51.018;6.994;2023-08-06T05:34:36;15.70;99.90
4324;DHT22;2175;51.018;6.994;2023-08-06T05:37:03;15.70;99.90
4324;DHT22;2175;51.018;6.994;2023-08-06T05:39:29;15.80;99.90
4324;DHT22;2175;51.018;6.994;2023-08-06T05:41:55;15.80;99.90
4324;DHT22;2175;51.018;6.994;2023-08-06T05:44:21;15.80;99.90
4324;DHT22;2175;51.018;6.994;2023-08-06T05:46:46;16.00;99.90
4324;DHT22;2175;51.018;6.994;2023-08-06T05:49:12;16.00;99.90
4324;DHT22;2175;51.018;6.994;2023-08-06T05:51:39;16.00;99.90
4324;DHT22;2175;51.018;6.994;2023-08-06T05:54:05;16.10;99.90
4324;DHT22;2175;51.018;6.994;2023-08-06T05:56:30;16.00;99.90
4324;DHT22;2175;51.018;6.994;2023-08-06T05:58:56;16.00;99.90
4324;DHT22;2175;51.018;6.994;2023-08-06T06:01:21;16.00;99.90
4324;DHT22;2175;51.018;6.994;2023-08-06T06:03:47;16.00;99.90
4324;DHT22;2175;51.018;6.994;2023-08-06T06:06:13;16.10;99.90
4324;DHT22;2175;51.018;6.994;2023-08-06T06:08:38;16.00;99.90
4324;DHT22;2175;51.018;6.994;2023-08-06T06:11:04;16.10;99.90
4324;DHT22;2175;51.018;6.994;2023-08-06T06:13:29;16.10;99.90
4324;DHT22;2175;51.018;6.994;2023-08-06T06:15:55;16.10;99.90
4324;DHT22;2175;51.018;6.994;2023-08-06T06:18:21;16.10;99.90
4324;DHT22;2175;51.018;6.994;2023-08-06T06:20:47;16.00;99.90
4324;DHT22;2175;51.018;6.994;2023-08-06T06:23:13;16.00;99.90
4324;DHT22;2175;51.018;6.994;2023-08-06T06:25:57;16.10;99.90
4324;DHT22;2175;51.018;6.994;2023-08-06T06:28:23;16.20;99.90
4324;DHT22;2175;51.018;6.994;2023-08-06T06:30:48;16.20;99.90
4324;DHT22;2175;51.018;6.994;2023-08-06T06:33:14;16.20;99.90
4324;DHT22;2175;51.018;6.994;2023-08-06T06:35:39;16.20;99.90
4324;DHT22;2175;51.018;6.994;2023-08-06T06:38:05;16.20;99.90
4324;DHT22;2175;51.018;6.994;2023-08-06T06:40:30;16.10;99.90
4324;DHT22;2175;51.018;6.994;2023-08-06T06:42:56;16.20;99.90
4324;DHT22;2175;51.018;6.994;2023-08-06T06:45:22;16.30;99.90
4324;DHT22;2175;51.018;6.994;2023-08-06T06:47:47;16.30;99.90
4324;DHT22;2175;51.018;6.994;2023-08-06T06:50:13;16.30;99.90
4324;DHT22;2175;51.018;6.994;2023-08-06T06:52:38;16.30;99.90
4324;DHT22;2175;51.018;6.994;2023-08-06T06:55:04;16.30;99.90
4324;DHT22;2175;51.018;6.994;2023-08-06T06:57:30;16.30;99.90
4324;DHT22;2175;51.018;6.994;2023-08-06T06:59:55;16.40;99.90
4324;DHT22;2175;51.018;6.994;2023-08-06T07:02:21;16.40;99.90
4324;DHT22;2175;51.018;6.994;2023-08-06T07:04:47;16.30;99.90
4324;DHT22;2175;51.018;6.994;2023-08-06T07:07:12;16.30;99.90
4324;DHT22;2175;51.018;6.994;2023-08-06T07:09:38;16.30;99.90
4324;DHT22;2175;51.018;6.994;2023-08-06T07:12:04;16.40;99.90
4324;DHT22;2175;51.018;6.994;2023-08-06T07:14:29;16.40;99.90
4324;DHT22;2175;51.018;6.994;2023-08-06T07:16:55;16.40;99.90
4324;DHT22;2175;51.018;6.994;2023-08-06T07:19:21;16.40;99.90
4324;DHT22;2175;51.018;6.994;2023-08-06T07:21:46;16.60;99.90
4324;DHT22;2175;51.018;6.994;2023-08-06T07:24:12;16.50;99.90
4324;DHT22;2175;51.018;6.994;2023-08-06T07:26:38;16.50;99.90
4324;DHT22;2175;51.018;6.994;2023-08-06T07:29:03;16.60;99.90
4324;DHT22;2175;51.018;6.994;2023-08-06T07:31:29;16.70;99.90
4324;DHT22;2175;51.018;6.994;2023-08-06T07:33:54;16.70;99.90
4324;DHT22;2175;51.018;6.994;2023-08-06T07:36:20;16.70;99.90
4324;DHT22;2175;51.018;6.994;2023-08-06T07:38:46;16.60;99.90
4324;DHT22;2175;51.018;6.994;2023-08-06T07:41:11;16.60;99.90
4324;DHT22;2175;51.018;6.994;2023-08-06T07:43:37;16.50;99.90
4324;DHT22;2175;51.018;6.994;2023-08-06T07:46:02;16.40;99.90
4324;DHT22;2175;51.018;6.994;2023-08-06T07:48:28;16.30;99.90
4324;DHT22;2175;51.018;6.994;2023-08-06T07:50:55;16.20;99.90
4324;DHT22;2175;51.018;6.994;2023-08-06T07:53:24;16.30;99.90
4324;DHT22;2175;51.018;6.994;2023-08-06T07:55:53;16.40;99.90
4324;DHT22;2175;51.018;6.994;2023-08-06T07:58:20;16.40;99.90
4324;DHT22;2175;51.018;6.994;2023-08-06T08:00:45;16.40;99.90
4324;DHT22;2175;51.018;6.994;2023-08-06T08:03:12;16.40;99.90
4324;DHT22;2175;51.018;6.994;2023-08-06T08:05:39;16.40;99.90
4324;DHT22;2175;51.018;6.994;2023-08-06T08:08:04;16.50;99.90
4324;DHT22;2175;51.018;6.994;2023-08-06T08:10:31;16.50;99.90
4324;DHT22;2175;51.018;6.994;2023-08-06T08:12:57;16.60;99.90
4324;DHT22;2175;51.018;6.994;2023-08-06T08:15:22;16.50;99.90
4324;DHT22;2175;51.018;6.994;2023-08-06T08:17:48;16.40;99.90
4324;DHT22;2175;51.018;6.994;2023-08-06T08:20:16;16.40;99.90
4324;DHT22;2175;51.018;6.994;2023-08-06T08:22:41;16.40;99.90
4324;DHT22;2175;51.018;6.994;2023-08-06T08:25:07;16.40;99.90
4324;DHT22;2175;51.018;6.994;2023-08-06T08:27:32;16.30;99.90
4324;DHT22;2175;51.018;6.994;2023-08-06T08:29:58;16.40;99.90
4324;DHT22;2175;51.018;6.994;2023-08-06T08:32:23;16.40;99.90
4324;DHT22;2175;51.018;6.994;2023-08-06T08:34:49;16.40;99.90
4324;DHT22;2175;51.018;6.994;2023-08-06T08:37:15;16.40;99.90
4324;DHT22;2175;51.018;6.994;2023-08-06T08:39:41;16.40;99.90
4324;DHT22;2175;51.018;6.994;2023-08-06T08:42:06;16.50;99.90
4324;DHT22;2175;51.018;6.994;2023-08-06T08:44:32;16.60;99.90
4324;DHT22;2175;51.018;6.994;2023-08-06T08:46:59;16.70;99.90
4324;DHT22;2175;51.018;6.994;2023-08-06T08:49:26;16.80;99.90
4324;DHT22;2175;51.018;6.994;2023-08-06T08:51:53;16.70;99.90
4324;DHT22;2175;51.018;6.994;2023-08-06T08:54:23;16.80;99.90
4324;DHT22;2175;51.018;6.994;2023-08-06T08:56:49;16.80;99.90
4324;DHT22;2175;51.018;6.994;2023-08-06T08:59:15;16.90;99.90
4324;DHT22;2175;51.018;6.994;2023-08-06T09:01:42;17.00;99.90
4324;DHT22;2175;51.018;6.994;2023-08-06T09:04:09;17.10;99.90
4324;DHT22;2175;51.018;6.994;2023-08-06T09:06:37;17.10;99.90
4324;DHT22;2175;51.018;6.994;2023-08-06T09:09:09;17.10;99.90
4324;DHT22;2175;51.018;6.994;2023-08-06T09:11:43;17.10;99.90
4324;DHT22;2175;51.018;6.994;2023-08-06T09:14:11;17.10;99.90
4324;DHT22;2175;51.018;6.994;2023-08-06T09:16:38;17.10;99.90
4324;DHT22;2175;51.018;6.994;2023-08-06T09:19:13;17.00;99.90
4324;DHT22;2175;51.018;6.994;2023-08-06T09:21:43;17.00;99.90
4324;DHT22;2175;51.018;6.994;2023-08-06T09:24:10;17.00;99.90
4324;DHT22;2175;51.018;6.994;2023-08-06T09:26:43;16.90;99.90
4324;DHT22;2175;51.018;6.994;2023-08-06T09:29:10;16.80;99.90
4324;DHT22;2175;51.018;6.994;2023-08-06T09:31:50;16.80;99.90
4324;DHT22;2175;51.018;6.994;2023-08-06T09:34:23;16.90;99.90
4324;DHT22;2175;51.018;6.994;2023-08-06T09:36:50;16.90;99.90
4324;DHT22;2175;51.018;6.994;2023-08-06T09:39:17;17.10;99.90
4324;DHT22;2175;51.018;6.994;2023-08-06T09:41:44;17.10;99.90
4324;DHT22;2175;51.018;6.994;2023-08-06T09:44:19;17.20;99.90
4324;DHT22;2175;51.018;6.994;2023-08-06T09:46:49;17.40;99.90
4324;DHT22;2175;51.018;6.994;2023-08-06T09:49:16;17.50;99.90
4324;DHT22;2175;51.018;6.994;2023-08-06T09:51:41;17.50;99.90
4324;DHT22;2175;51.018;6.994;2023-08-06T09:54:08;17.70;99.90
4324;DHT22;2175;51.018;6.994;2023-08-06T09:56:37;17.90;99.90
4324;DHT22;2175;51.018;6.994;2023-08-06T09:59:06;18.10;99.90
4324;DHT22;2175;51.018;6.994;2023-08-06T10:01:33;18.10;99.90
4324;DHT22;2175;51.018;6.994;2023-08-06T10:04:00;18.30;99.90
4324;DHT22;2175;51.018;6.994;2023-08-06T10:06:28;18.60;99.90
4324;DHT22;2175;51.018;6.994;2023-08-06T10:08:54;18.50;99.90
4324;DHT22;2175;51.018;6.994;2023-08-06T10:11:22;18.30;99.90
4324;DHT22;2175;51.018;6.994;2023-08-06T10:13:50;17.90;99.90
4324;DHT22;2175;51.018;6.994;2023-08-06T10:16:18;17.40;99.90
4324;DHT22;2175;51.018;6.994;2023-08-06T10:18:44;16.90;99.90
4324;DHT22;2175;51.018;6.994;2023-08-06T10:21:10;16.70;99.90
4324;DHT22;2175;51.018;6.994;2023-08-06T10:23:36;16.60;99.90
4324;DHT22;2175;51.018;6.994;2023-08-06T10:26:04;16.50;99.90
4324;DHT22;2175;51.018;6.994;2023-08-06T10:28:39;16.50;99.90
4324;DHT22;2175;51.018;6.994;2023-08-06T10:31:05;16.50;99.90
4324;DHT22;2175;51.018;6.994;2023-08-06T10:33:45;16.50;99.90
4324;DHT22;2175;51.018;6.994;2023-08-06T10:36:12;16.40;99.90
4324;DHT22;2175;51.018;6.994;2023-08-06T10:38:47;16.50;99.90
4324;DHT22;2175;51.018;6.994;2023-08-06T10:41:29;16.40;99.90
4324;DHT22;2175;51.018;6.994;2023-08-06T10:44:09;16.40;99.90
4324;DHT22;2175;51.018;6.994;2023-08-06T10:46:35;16.30;99.90
4324;DHT22;2175;51.018;6.994;2023-08-06T10:49:01;16.20;99.90
4324;DHT22;2175;51.018;6.994;2023-08-06T10:51:38;16.20;99.90
4324;DHT22;2175;51.018;6.994;2023-08-06T10:54:04;16.20;99.90
4324;DHT22;2175;51.018;6.994;2023-08-06T10:56:30;16.10;99.90
4324;DHT22;2175;51.018;6.994;2023-08-06T10:58:57;16.00;99.90
4324;DHT22;2175;51.018;6.994;2023-08-06T11:01:23;16.00;99.90
4324;DHT22;2175;51.018;6.994;2023-08-06T11:03:50;15.90;99.90
4324;DHT22;2175;51.018;6.994;2023-08-06T11:06:22;15.90;99.90
4324;DHT22;2175;51.018;6.994;2023-08-06T11:08:50;15.90;99.90
4324;DHT22;2175;51.018;6.994;2023-08-06T11:11:17;15.90;99.90
4324;DHT22;2175;51.018;6.994;2023-08-06T11:13:44;15.80;99.90
4324;DHT22;2175;51.018;6.994;2023-08-06T11:16:12;15.80;99.90
4324;DHT22;2175;51.018;6.994;2023-08-06T11:18:40;15.80;99.90
4324;DHT22;2175;51.018;6.994;2023-08-06T11:21:05;15.70;99.90
4324;DHT22;2175;51.018;6.994;2023-08-06T11:23:34;15.60;99.90
4324;DHT22;2175;51.018;6.994;2023-08-06T11:26:00;15.60;99.90
4324;DHT22;2175;51.018;6.994;2023-08-06T11:28:26;15.60;99.90
4324;DHT22;2175;51.018;6.994;2023-08-06T11:30:53;15.60;99.90
4324;DHT22;2175;51.018;6.994;2023-08-06T11:33:24;15.50;99.90
4324;DHT22;2175;51.018;6.994;2023-08-06T11:35:55;15.50;99.90
4324;DHT22;2175;51.018;6.994;2023-08-06T11:38:21;15.50;99.90
4324;DHT22;2175;51.018;6.994;2023-08-06T11:40:51;15.40;99.90
4324;DHT22;2175;51.018;6.994;2023-08-06T11:43:19;15.40;99.90
4324;DHT22;2175;51.018;6.994;2023-08-06T11:45:44;15.50;99.90
4324;DHT22;2175;51.018;6.994;2023-08-06T11:48:10;15.50;99.90
4324;DHT22;2175;51.018;6.994;2023-08-06T11:50:37;15.50;99.90
4324;DHT22;2175;51.018;6.994;2023-08-06T11:53:04;15.60;99.90
4324;DHT22;2175;51.018;6.994;2023-08-06T11:55:30;15.60;99.90
4324;DHT22;2175;51.018;6.994;2023-08-06T11:57:57;15.70;99.90
4324;DHT22;2175;51.018;6.994;2023-08-06T12:00:24;15.70;99.90
4324;DHT22;2175;51.018;6.994;2023-08-06T12:02:53;15.70;99.90
4324;DHT22;2175;51.018;6.994;2023-08-06T12:05:21;15.70;99.90
4324;DHT22;2175;51.018;6.994;2023-08-06T12:07:54;15.70;99.90
4324;DHT22;2175;51.018;6.994;2023-08-06T12:10:22;15.80;99.90
4324;DHT22;2175;51.018;6.994;2023-08-06T12:12:49;15.70;99.90
4324;DHT22;2175;51.018;6.994;2023-08-06T12:15:15;15.80;99.90
4324;DHT22;2175;51.018;6.994;2023-08-06T12:17:41;15.70;99.90
4324;DHT22;2175;51.018;6.994;2023-08-06T12:20:08;15.70;99.90
4324;DHT22;2175;51.018;6.994;2023-08-06T12:22:37;15.70;99.90
4324;DHT22;2175;51.018;6.994;2023-08-06T12:25:21;15.80;99.90
4324;DHT22;2175;51.018;6.994;2023-08-06T12:27:48;15.90;99.90
4324;DHT22;2175;51.018;6.994;2023-08-06T12:30:15;15.90;99.90
4324;DHT22;2175;51.018;6.994;2023-08-06T12:32:41;15.80;99.90
4324;DHT22;2175;51.018;6.994;2023-08-06T12:35:07;15.90;99.90
4324;DHT22;2175;51.018;6.994;2023-08-06T12:37:33;16.00;99.90
4324;DHT22;2175;51.018;6.994;2023-08-06T12:39:59;16.00;99.90
4324;DHT22;2175;51.018;6.994;2023-08-06T12:42:25;16.00;99.90
4324;DHT22;2175;51.018;6.994;2023-08-06T12:44:51;16.00;99.90
4324;DHT22;2175;51.018;6.994;2023-08-06T12:47:17;15.90;99.90
4324;DHT22;2175;51.018;6.994;2023-08-06T12:49:43;15.90;99.90
4324;DHT22;2175;51.018;6.994;2023-08-06T12:52:09;16.00;99.90
4324;DHT22;2175;51.018;6.994;2023-08-06T12:54:35;16.00;99.90
4324;DHT22;2175;51.018;6.994;2023-08-06T12:57:04;16.10;99.90
4324;DHT22;2175;51.018;6.994;2023-08-06T12:59:30;16.10;99.90
4324;DHT22;2175;51.018;6.994;2023-08-06T13:01:59;16.10;99.90
4324;DHT22;2175;51.018;6.994;2023-08-06T13:04:25;16.20;99.90
4324;DHT22;2175;51.018;6.994;2023-08-06T13:06:51;16.20;99.90
4324;DHT22;2175;51.018;6.994;2023-08-06T13:09:17;16.30;99.90
4324;DHT22;2175;51.018;6.994;2023-08-06T13:11:44;16.20;99.90
4324;DHT22;2175;51.018;6.994;2023-08-06T13:14:13;16.20;99.90
4324;DHT22;2175;51.018;6.994;2023-08-06T13:16:41;16.10;99.90
4324;DHT22;2175;51.018;6.994;2023-08-06T13:19:08;16.10;99.90
4324;DHT22;2175;51.018;6.994;2023-08-06T13:24:20;16.20;99.90
4324;DHT22;2175;51.018;6.994;2023-08-06T13:26:46;16.20;99.90
4324;DHT22;2175;51.018;6.994;2023-08-06T13:29:12;16.20;99.90
4324;DHT22;2175;51.018;6.994;2023-08-06T13:31:37;16.20;99.90
4324;DHT22;2175;51.018;6.994;2023-08-06T13:34:03;16.20;99.90
4324;DHT22;2175;51.018;6.994;2023-08-06T13:36:29;16.10;99.90
4324;DHT22;2175;51.018;6.994;2023-08-06T13:38:56;16.20;99.90
4324;DHT22;2175;51.018;6.994;2023-08-06T13:41:22;16.20;99.90
4324;DHT22;2175;51.018;6.994;2023-08-06T13:43:50;16.20;99.90
4324;DHT22;2175;51.018;6.994;2023-08-06T13:46:18;16.30;99.90
4324;DHT22;2175;51.018;6.994;2023-08-06T13:48:46;16.30;99.90
4324;DHT22;2175;51.018;6.994;2023-08-06T13:51:13;16.30;99.90
4324;DHT22;2175;51.018;6.994;2023-08-06T13:53:40;16.20;99.90
4324;DHT22;2175;51.018;6.994;2023-08-06T13:56:06;16.20;99.90
4324;DHT22;2175;51.018;6.994;2023-08-06T13:58:33;16.20;99.90
4324;DHT22;2175;51.018;6.994;2023-08-06T14:01:01;16.20;99.90
4324;DHT22;2175;51.018;6.994;2023-08-06T14:03:27;16.20;99.90
4324;DHT22;2175;51.018;6.994;2023-08-06T14:05:52;16.20;99.90
4324;DHT22;2175;51.018;6.994;2023-08-06T14:08:20;16.20;99.90
4324;DHT22;2175;51.018;6.994;2023-08-06T14:10:49;16.20;99.90
4324;DHT22;2175;51.018;6.994;2023-08-06T14:13:15;16.30;99.90
4324;DHT22;2175;51.018;6.994;2023-08-06T14:15:41;16.10;99.90
4324;DHT22;2175;51.018;6.994;2023-08-06T14:18:07;16.10;99.90
4324;DHT22;2175;51.018;6.994;2023-08-06T14:20:35;16.10;99.90
4324;DHT22;2175;51.018;6.994;2023-08-06T14:23:01;16.10;99.90
4324;DHT22;2175;51.018;6.994;2023-08-06T14:25:27;16.20;99.90
4324;DHT22;2175;51.018;6.994;2023-08-06T14:27:52;16.10;99.90
4324;DHT22;2175;51.018;6.994;2023-08-06T14:30:18;16.10;99.90
4324;DHT22;2175;51.018;6.994;2023-08-06T14:32:44;16.10;99.90
4324;DHT22;2175;51.018;6.994;2023-08-06T14:35:09;16.30;99.90
4324;DHT22;2175;51.018;6.994;2023-08-06T14:37:35;16.20;99.90
4324;DHT22;2175;51.018;6.994;2023-08-06T14:40:03;16.10;99.90
4324;DHT22;2175;51.018;6.994;2023-08-06T14:42:29;16.00;99.90
4324;DHT22;2175;51.018;6.994;2023-08-06T14:44:54;16.10;99.90
4324;DHT22;2175;51.018;6.994;2023-08-06T14:47:29;16.00;99.90
4324;DHT22;2175;51.018;6.994;2023-08-06T20:30:59;14.30;99.90
4324;DHT22;2175;51.018;6.994;2023-08-06T20:33:39;14.40;99.90
4324;DHT22;2175;51.018;6.994;2023-08-06T20:36:08;14.30;99.90
4324;DHT22;2175;51.018;6.994;2023-08-06T20:38:34;14.40;99.90
4324;DHT22;2175;51.018;6.994;2023-08-06T20:41:01;14.40;99.90
4324;DHT22;2175;51.018;6.994;2023-08-06T20:43:29;14.40;99.90
4324;DHT22;2175;51.018;6.994;2023-08-06T20:45:58;14.30;99.90
4324;DHT22;2175;51.018;6.994;2023-08-06T20:48:31;14.40;99.90
4324;DHT22;2175;51.018;6.994;2023-08-06T20:50:57;14.30;99.90
4324;DHT22;2175;51.018;6.994;2023-08-06T20:53:23;14.30;99.90
4324;DHT22;2175;51.018;6.994;2023-08-06T20:56:04;14.30;99.90
4324;DHT22;2175;51.018;6.994;2023-08-06T20:58:31;14.30;99.90
4324;DHT22;2175;51.018;6.994;2023-08-06T21:01:01;14.10;99.90
4324;DHT22;2175;51.018;6.994;2023-08-06T21:06:05;14.10;99.90
4324;DHT22;2175;51.018;6.994;2023-08-06T21:08:32;14.30;99.90
4324;DHT22;2175;51.018;6.994;2023-08-06T21:11:02;14.40;99.90
4324;DHT22;2175;51.018;6.994;2023-08-06T21:13:28;14.30;99.90
4324;DHT22;2175;51.018;6.994;2023-08-06T21:15:59;14.20;99.90
4324;DHT22;2175;51.018;6.994;2023-08-06T21:18:28;14.30;99.90
4324;DHT22;2175;51.018;6.994;2023-08-06T21:20:59;14.20;99.90
4324;DHT22;2175;51.018;6.994;2023-08-06T21:23:25;14.10;99.90
4324;DHT22;2175;51.018;6.994;2023-08-06T21:25:58;14.30;99.90
4324;DHT22;2175;51.018;6.994;2023-08-06T21:28:25;14.20;99.90
4324;DHT22;2175;51.018;6.994;2023-08-06T21:30:59;13.90;99.90
4324;DHT22;2175;51.018;6.994;2023-08-06T21:33:26;13.80;99.90
4324;DHT22;2175;51.018;6.994;2023-08-06T21:35:53;13.90;99.90
4324;DHT22;2175;51.018;6.994;2023-08-06T21:40:47;14.30;99.90
4324;DHT22;2175;51.018;6.994;2023-08-06T21:43:12;14.20;99.90
4324;DHT22;2175;51.018;6.994;2023-08-06T21:45:38;14.20;99.90
4324;DHT22;2175;51.018;6.994;2023-08-06T21:48:04;14.20;99.90
4324;DHT22;2175;51.018;6.994;2023-08-06T21:50:29;14.20;99.90
4324;DHT22;2175;51.018;6.994;2023-08-06T21:52:56;14.10;99.90
4324;DHT22;2175;51.018;6.994;2023-08-06T22:02:40;14.10;99.90